Time;durP1;ratioP1;P1;durP2;ratioP2;P2;SDS_P1;SDS_P2;PMS_P1;PMS_P2;Temp;Humidity;BMP_temperature;BMP_pressure;BME280_temperature;BME280_humidity;BME280_pressure;Samples;Min_cycle;Max_cycle;Signal;HPM_P1;HPM_P2
2023/09/07 00:00:13;;;;;;;10.80;7.03;;;;;;;23.24;66.78;100106.91;4843144;29;20400;-42
2023/09/07 00:02:38;;;;;;;10.98;7.43;;;;;;;23.08;67.33;100099.94;4843227;29;20037;-43
2023/09/07 00:05:06;;;;;;;8.85;7.05;;;;;;;22.95;67.18;100104.81;4842649;29;20046;-42
2023/09/07 00:07:31;;;;;;;8.13;6.50;;;;;;;23.20;65.27;100100.41;4842855;29;20559;-43
2023/09/07 00:09:56;;;;;;;9.73;7.00;;;;;;;23.23;64.91;100103.38;4842869;29;20037;-42
2023/09/07 00:12:22;;;;;;;9.02;6.18;;;;;;;22.98;65.07;100092.59;4842969;29;20041;-43
2023/09/07 00:14:47;;;;;;;13.52;6.55;;;;;;;23.07;65.04;100092.88;4842784;29;20033;-43
2023/09/07 00:17:13;;;;;;;8.52;6.53;;;;;;;23.14;64.69;100102.34;4842840;29;20058;-47
2023/09/07 00:19:38;;;;;;;9.68;6.40;;;;;;;23.35;63.22;100105.75;4842662;29;20050;-43
2023/09/07 00:22:04;;;;;;;8.40;6.45;;;;;;;23.66;62.37;100102.84;4842768;29;20030;-44
2023/09/07 00:24:31;;;;;;;8.80;6.03;;;;;;;24.03;60.90;100101.53;4842911;29;20018;-43
2023/09/07 00:26:57;;;;;;;7.47;5.95;;;;;;;23.90;61.01;100103.00;4842922;29;20034;-45
2023/09/07 00:29:22;;;;;;;6.57;5.80;;;;;;;24.13;60.14;100100.66;4842574;29;20060;-41
2023/09/07 00:31:48;;;;;;;7.35;5.97;;;;;;;24.33;58.88;100102.34;4842714;29;20074;-43
2023/09/07 00:34:13;;;;;;;8.43;6.18;;;;;;;24.09;58.90;100100.41;4842793;29;20026;-45
2023/09/07 00:36:39;;;;;;;7.30;6.00;;;;;;;24.09;58.74;100091.44;4842651;29;20022;-45
2023/09/07 00:39:05;;;;;;;7.65;5.78;;;;;;;24.14;57.69;100100.38;4843060;29;20028;-43
2023/09/07 00:41:30;;;;;;;7.50;5.78;;;;;;;23.75;59.54;100097.66;4860618;29;20029;-41
2023/09/07 00:43:55;;;;;;;8.52;5.65;;;;;;;23.77;59.09;100090.03;4860753;29;20021;-45
2023/09/07 00:46:21;;;;;;;7.95;5.50;;;;;;;23.96;58.66;100092.91;4859976;29;20033;-44
2023/09/07 00:48:48;;;;;;;6.40;5.70;;;;;;;24.12;58.08;100091.69;4860704;29;20026;-42
2023/09/07 00:51:13;;;;;;;6.15;5.47;;;;;;;24.43;57.39;100099.56;4861003;29;20029;-43
2023/09/07 00:53:40;;;;;;;8.73;5.50;;;;;;;24.27;57.60;100096.16;4860517;29;20435;-43
2023/09/07 00:56:06;;;;;;;8.13;5.60;;;;;;;24.07;57.72;100097.16;4860585;29;20029;-42
2023/09/07 00:58:32;;;;;;;6.20;5.13;;;;;;;23.94;57.94;100095.09;4860357;29;20537;-44
2023/09/07 01:00:58;;;;;;;8.13;5.10;;;;;;;23.97;58.34;100092.63;4860909;29;20030;-43
2023/09/07 01:03:24;;;;;;;7.13;5.53;;;;;;;24.17;57.42;100096.25;4860255;29;20050;-41
2023/09/07 01:06:03;;;;;;;7.95;4.78;;;;;;;23.88;58.09;100082.66;4860339;29;20026;-42
2023/09/07 01:08:35;;;;;;;8.18;5.05;;;;;;;23.79;58.23;100079.72;4860382;29;20057;-43
2023/09/07 01:11:00;;;;;;;8.90;5.30;;;;;;;23.68;58.24;100086.28;4860499;29;20036;-42
2023/09/07 01:13:26;;;;;;;8.38;5.10;;;;;;;23.57;58.52;100091.78;4859652;29;20045;-45
2023/09/07 01:15:52;;;;;;;6.20;4.80;;;;;;;23.79;57.44;100077.00;4859981;29;20485;-41
2023/09/07 01:18:18;;;;;;;6.63;4.80;;;;;;;24.09;56.21;100089.53;4860401;29;20033;-40
2023/09/07 01:20:45;;;;;;;6.00;4.68;;;;;;;24.18;55.90;100074.22;4859603;29;20487;-45
2023/09/07 01:23:13;;;;;;;5.72;4.60;;;;;;;24.20;55.41;100082.09;4853800;29;20036;-41
2023/09/07 01:25:40;;;;;;;5.30;4.47;;;;;;;23.81;56.50;100072.09;4860107;29;20021;-44
2023/09/07 01:28:06;;;;;;;6.60;4.50;;;;;;;23.89;56.55;100076.09;4859815;29;20049;-41
2023/09/07 01:30:36;;;;;;;6.50;4.30;;;;;;;23.87;56.89;100086.44;4860128;29;20087;-42
2023/09/07 01:33:03;;;;;;;7.03;4.10;;;;;;;23.98;56.48;100083.34;4860012;29;20056;-41
2023/09/07 01:35:29;;;;;;;5.18;3.90;;;;;;;24.00;55.74;100080.34;4859169;29;20037;-45
2023/09/07 01:37:54;;;;;;;8.10;4.82;;;;;;;23.99;55.96;100076.03;4841884;29;20040;-43
2023/09/07 01:40:20;;;;;;;6.95;4.20;;;;;;;24.09;55.76;100078.66;4841656;29;20550;-42
2023/09/07 01:42:45;;;;;;;5.63;4.07;;;;;;;23.79;56.47;100077.00;4841593;29;20034;-43
2023/09/07 01:45:10;;;;;;;6.35;4.32;;;;;;;23.83;56.98;100085.41;4841421;29;20030;-43
2023/09/07 01:47:36;;;;;;;6.35;4.20;;;;;;;23.91;56.82;100092.94;4854571;29;20037;-43
2023/09/07 01:50:02;;;;;;;5.38;4.03;;;;;;;24.05;56.65;100091.19;4859706;29;20101;-44
2023/09/07 01:52:27;;;;;;;6.97;4.68;;;;;;;24.04;56.65;100088.75;4859795;29;20490;-41
2023/09/07 01:54:55;;;;;;;5.80;4.80;;;;;;;23.87;57.59;100087.25;4859819;29;20041;-43
2023/09/07 01:57:20;;;;;;;7.32;4.43;;;;;;;24.03;57.01;100092.56;4859638;29;20030;-42
2023/09/07 01:59:48;;;;;;;12.20;4.60;;;;;;;24.11;57.13;100089.25;4859567;29;20076;-44
2023/09/07 02:02:13;;;;;;;5.20;4.60;;;;;;;24.14;57.14;100086.78;4859786;29;20036;-41
2023/09/07 02:04:39;;;;;;;6.85;4.80;;;;;;;24.16;57.38;100090.00;4859247;29;20406;-42
2023/09/07 02:07:04;;;;;;;6.90;4.90;;;;;;;24.15;57.48;100087.56;4859330;29;20034;-44
2023/09/07 02:09:30;;;;;;;7.20;5.45;;;;;;;24.20;57.48;100082.91;4859179;29;20049;-43
2023/09/07 02:11:55;;;;;;;7.97;5.47;;;;;;;24.24;57.29;100079.59;4859343;29;20028;-42
2023/09/07 02:14:20;;;;;;;8.63;5.30;;;;;;;24.18;57.88;100090.53;4858745;29;20030;-44
2023/09/07 02:16:46;;;;;;;6.88;5.10;;;;;;;24.13;58.36;100092.50;4858619;29;20109;-43
2023/09/07 02:19:11;;;;;;;7.72;5.55;;;;;;;24.11;58.69;100092.78;4858824;29;20033;-41
2023/09/07 02:21:37;;;;;;;9.88;5.45;;;;;;;24.07;58.95;100088.19;4847865;29;20056;-44
2023/09/07 02:24:03;;;;;;;10.50;6.35;;;;;;;23.99;59.44;100089.63;4858977;29;20029;-44
2023/09/07 02:26:28;;;;;;;8.18;6.05;;;;;;;23.93;60.04;100097.00;4859007;29;20025;-46
2023/09/07 02:28:53;;;;;;;7.55;5.97;;;;;;;23.92;60.32;100094.56;4858285;29;20206;-45
2023/09/07 02:31:19;;;;;;;6.93;5.55;;;;;;;23.96;60.32;100093.69;4858998;29;20100;-46
2023/09/07 02:33:44;;;;;;;9.68;6.70;;;;;;;23.95;60.58;100096.69;4853522;29;20034;-44
2023/09/07 02:36:10;;;;;;;8.18;6.35;;;;;;;23.95;60.77;100096.69;4855622;29;20037;-46
2023/09/07 02:38:35;;;;;;;8.15;6.85;;;;;;;23.88;61.60;100096.25;4858854;29;20029;-43
2023/09/07 02:41:02;;;;;;;9.63;6.57;;;;;;;23.83;62.07;100094.34;4872856;29;20097;-44
2023/09/07 02:43:27;;;;;;;10.85;8.18;;;;;;;23.77;63.33;100095.47;4858783;29;20108;-45
2023/09/07 02:45:53;;;;;;;10.63;7.80;;;;;;;23.77;63.50;100090.03;4858999;29;20479;-45
2023/09/07 02:48:18;;;;;;;9.13;7.30;;;;;;;23.79;63.79;100090.59;4858747;29;20037;-44
2023/09/07 02:50:48;;;;;;;10.18;7.50;;;;;;;23.79;64.32;100091.38;4858494;29;20053;-45
2023/09/07 02:53:14;;;;;;;11.30;7.18;;;;;;;23.79;64.86;100085.94;4858695;29;20029;-44
2023/09/07 02:55:40;;;;;;;12.68;7.45;;;;;;;23.89;64.59;100086.97;4846504;29;20509;-44
2023/09/07 02:58:05;;;;;;;10.02;8.40;;;;;;;23.98;64.20;100082.56;4840173;29;20034;-44
2023/09/07 03:00:31;;;;;;;11.43;8.98;;;;;;;23.95;65.07;100091.25;4840339;29;20113;-45
2023/09/07 03:02:56;;;;;;;12.15;9.25;;;;;;;23.90;65.23;100092.13;4839996;29;20177;-47
2023/09/07 03:05:22;;;;;;;11.48;9.27;;;;;;;23.89;65.14;100097.84;4840657;29;20030;-44
2023/09/07 03:07:47;;;;;;;13.48;9.30;;;;;;;23.87;65.26;100092.69;4839923;29;20463;-45
2023/09/07 03:10:13;;;;;;;13.70;10.43;;;;;;;23.83;65.79;100099.78;4842524;29;20029;-44
2023/09/07 03:12:39;;;;;;;13.15;9.18;;;;;;;23.75;65.81;100100.38;4851637;29;20042;-45
2023/09/07 03:15:05;;;;;;;16.27;10.60;;;;;;;23.71;66.16;100105.56;4852194;29;20026;-47
2023/09/07 03:17:31;;;;;;;14.75;10.15;;;;;;;23.69;66.60;100107.75;4858362;29;20415;-47
2023/09/07 03:19:57;;;;;;;13.75;11.07;;;;;;;23.59;67.56;100103.19;4856796;29;20036;-47
2023/09/07 03:22:23;;;;;;;35.30;24.73;;;;;;;23.50;67.72;100114.94;4858019;29;20037;-47
2023/09/07 03:24:52;;;;;;;17.88;12.90;;;;;;;23.49;67.59;100111.38;4858538;29;20037;-46
2023/09/07 03:27:17;;;;;;;20.85;15.13;;;;;;;23.53;67.57;100111.63;4858219;29;20061;-44
2023/09/07 03:29:44;;;;;;;17.33;11.90;;;;;;;23.45;67.90;100110.31;4858698;29;20165;-47
2023/09/07 03:32:09;;;;;;;13.95;11.70;;;;;;;23.40;68.76;100113.88;4858216;29;20030;-48
2023/09/07 03:34:35;;;;;;;15.15;11.45;;;;;;;23.43;68.83;100113.31;4858105;29;20041;-45
2023/09/07 03:37:00;;;;;;;15.50;11.82;;;;;;;23.43;69.00;100120.66;4858447;29;20037;-45
2023/09/07 03:39:26;;;;;;;17.17;11.90;;;;;;;22.42;74.11;100118.78;4857920;29;20042;-46
2023/09/07 03:41:52;;;;;;;16.52;12.80;;;;;;;21.70;78.87;100112.50;4858049;29;20112;-47
2023/09/07 03:44:17;;;;;;;15.38;12.27;;;;;;;21.62;80.67;100111.13;4858124;29;20041;-45
2023/09/07 03:46:42;;;;;;;16.67;12.98;;;;;;;21.61;80.91;100122.22;4858032;29;20040;-46
2023/09/07 03:49:08;;;;;;;15.27;12.85;;;;;;;21.48;81.53;100128.97;4858266;29;20085;-46
2023/09/07 03:51:34;;;;;;;16.02;12.57;;;;;;;21.57;82.11;100129.25;4858048;29;20461;-45
2023/09/07 03:53:59;;;;;;;16.13;13.10;;;;;;;21.62;82.04;100131.97;4858418;29;20038;-48
2023/09/07 03:56:25;;;;;;;17.00;13.40;;;;;;;21.47;82.87;100121.94;4841368;29;20464;-45
2023/09/07 03:58:50;;;;;;;16.95;12.43;;;;;;;22.41;77.91;100133.44;4839065;29;20062;-45
2023/09/07 04:01:15;;;;;;;22.88;17.75;;;;;;;22.81;75.25;100125.50;4839683;29;20092;-45
2023/09/07 04:03:41;;;;;;;59.13;40.13;;;;;;;23.03;74.04;100134.13;4839928;29;20117;-42
2023/09/07 04:06:07;;;;;;;41.72;30.02;;;;;;;23.22;72.92;100138.94;4840052;29;20030;-43
2023/09/07 04:08:32;;;;;;;20.40;15.90;;;;;;;23.41;72.22;100134.50;4839737;29;20036;-42
2023/09/07 04:10:58;;;;;;;17.88;14.13;;;;;;;23.51;71.86;100132.84;4839643;29;20113;-44
2023/09/07 04:13:23;;;;;;;19.20;13.30;;;;;;;23.64;71.04;100136.84;4839891;29;20506;-44
2023/09/07 04:15:49;;;;;;;17.33;12.40;;;;;;;23.74;70.52;100139.47;4839798;29;20409;-45
2023/09/07 04:18:16;;;;;;;17.58;12.73;;;;;;;23.86;70.11;100140.00;4840061;29;20090;-44
2023/09/07 04:20:41;;;;;;;17.50;13.10;;;;;;;23.81;70.37;100137.28;4840693;29;20415;-44
2023/09/07 04:23:07;;;;;;;14.43;12.30;;;;;;;23.93;69.89;100128.78;4843028;29;20034;-45
2023/09/07 04:25:32;;;;;;;17.33;12.52;;;;;;;24.03;69.84;100134.16;4842721;29;20070;-44
2023/09/07 04:27:58;;;;;;;18.00;12.63;;;;;;;24.19;69.45;100141.09;4842866;29;20455;-42
2023/09/07 04:30:24;;;;;;;16.35;11.75;;;;;;;24.42;68.52;100127.84;4859322;29;20026;-46
2023/09/07 04:32:49;;;;;;;17.02;12.65;;;;;;;24.60;68.48;100134.50;4855431;29;20398;-46
2023/09/07 04:35:15;;;;;;;14.85;11.57;;;;;;;24.66;68.34;100133.34;4843205;29;20131;-44
2023/09/07 04:37:43;;;;;;;14.45;10.77;;;;;;;24.89;67.10;100134.47;4842632;29;20399;-42
2023/09/07 04:40:09;;;;;;;16.27;11.75;;;;;;;25.09;66.48;100144.31;4842717;29;20033;-44
2023/09/07 04:42:35;;;;;;;17.60;11.63;;;;;;;25.23;65.81;100146.38;4851248;29;20119;-45
2023/09/07 04:45:00;;;;;;;15.02;11.80;;;;;;;25.52;65.12;100149.78;4860303;29;20682;-45
2023/09/07 04:47:26;;;;;;;13.50;11.75;;;;;;;25.65;63.97;100148.25;4860510;29;20113;-43
2023/09/07 04:49:51;;;;;;;15.43;10.80;;;;;;;25.74;63.75;100149.19;4860325;29;20033;-44
2023/09/07 04:52:17;;;;;;;13.98;10.80;;;;;;;25.84;63.11;100144.72;4859882;29;20041;-43
2023/09/07 04:54:43;;;;;;;14.95;11.18;;;;;;;25.78;62.74;100141.25;4860253;29;20430;-42
2023/09/07 04:57:09;;;;;;;14.57;10.40;;;;;;;25.78;62.92;100151.31;4860020;29;20026;-41
2023/09/07 04:59:34;;;;;;;12.50;11.02;;;;;;;25.89;62.75;100158.25;4859891;29;20061;-42
2023/09/07 05:02:01;;;;;;;14.93;11.02;;;;;;;25.99;61.72;100157.31;4860029;29;20124;-45
2023/09/07 05:04:27;;;;;;;20.45;12.25;;;;;;;26.06;61.40;100157.75;4860248;29;20048;-42
2023/09/07 05:06:52;;;;;;;15.02;12.38;;;;;;;26.16;61.21;100154.03;4859831;29;20486;-43
2023/09/07 05:09:20;;;;;;;13.93;11.27;;;;;;;26.14;60.45;100157.88;4859075;29;20082;-42
2023/09/07 05:11:45;;;;;;;19.15;12.18;;;;;;;24.53;66.26;100159.31;4859438;29;20025;-42
2023/09/07 05:14:10;;;;;;;18.05;11.90;;;;;;;23.94;69.40;100163.03;4859971;29;20140;-43
2023/09/07 05:16:36;;;;;;;14.20;11.52;;;;;;;23.85;70.07;100168.25;4859692;29;20486;-45
2023/09/07 05:19:01;;;;;;;17.67;11.93;;;;;;;23.78;70.78;100154.97;4859802;29;20033;-44
2023/09/07 05:21:27;;;;;;;13.88;12.15;;;;;;;23.62;71.16;100156.94;4859515;29;20026;-44
2023/09/07 05:23:52;;;;;;;15.88;11.70;;;;;;;23.35;72.33;100153.81;4859441;29;20030;-44
2023/09/07 05:26:24;;;;;;;15.85;11.70;;;;;;;23.44;71.71;100160.31;4859622;29;20151;-43
2023/09/07 05:28:50;;;;;;;16.15;12.07;;;;;;;23.52;71.74;100167.06;4859271;29;20069;-44
2023/09/07 05:31:15;;;;;;;16.23;12.27;;;;;;;23.48;72.12;100164.09;4859293;29;20033;-44
2023/09/07 05:33:41;;;;;;;17.30;11.80;;;;;;;23.37;73.28;100165.22;4859075;29;20057;-43
2023/09/07 05:36:06;;;;;;;17.60;11.45;;;;;;;23.70;71.73;100165.59;4859388;29;20029;-44
2023/09/07 05:38:31;;;;;;;30.25;12.80;;;;;;;24.02;70.26;100169.78;4859148;29;20064;-47
2023/09/07 05:40:57;;;;;;;19.77;12.70;;;;;;;23.87;70.40;100168.78;4859491;29;20065;-42
2023/09/07 05:43:23;;;;;;;18.63;11.60;;;;;;;24.09;69.69;100159.41;4859390;29;20029;-43
2023/09/07 05:45:48;;;;;;;18.45;13.68;;;;;;;24.13;69.51;100158.53;4859195;29;20033;-43
2023/09/07 05:48:17;;;;;;;17.52;13.05;;;;;;;24.25;68.74;100152.72;4859419;29;20028;-44
2023/09/07 05:50:43;;;;;;;18.50;12.32;;;;;;;24.61;67.45;100143.47;4859058;29;20029;-42
2023/09/07 05:53:09;;;;;;;16.42;11.88;;;;;;;25.17;66.17;100146.38;4859199;29;20025;-43
2023/09/07 05:55:34;;;;;;;17.77;11.32;;;;;;;25.47;64.36;100149.03;4858879;29;20052;-43
2023/09/07 05:58:05;;;;;;;14.90;10.88;;;;;;;25.54;64.72;100146.75;4858865;29;20066;-46
2023/09/07 06:00:31;;;;;;;14.88;10.63;;;;;;;25.59;63.64;100146.69;4859213;29;20153;-43
2023/09/07 06:02:56;;;;;;;16.08;11.63;;;;;;;25.36;64.56;100148.38;4858836;29;20037;-43
2023/09/07 06:05:22;;;;;;;17.63;10.80;;;;;;;25.67;63.76;100154.19;4858971;29;20025;-43
2023/09/07 06:07:47;;;;;;;20.88;10.98;;;;;;;26.22;61.64;100158.31;4858851;29;20451;-43
2023/09/07 06:10:13;;;;;;;14.18;9.68;;;;;;;26.56;60.34;100157.19;4858658;29;20037;-42
2023/09/07 06:12:38;;;;;;;16.67;9.77;;;;;;;26.99;58.14;100154.22;4858940;29;20104;-42
2023/09/07 06:15:04;;;;;;;15.10;9.25;;;;;;;27.05;57.59;100161.19;4858710;29;20030;-42
2023/09/07 06:17:30;;;;;;;15.55;9.10;;;;;;;27.32;57.66;100168.59;4857809;29;20041;-43
2023/09/07 06:19:56;;;;;;;13.98;8.95;;;;;;;27.34;55.26;100166.41;4858386;29;20038;-42
2023/09/07 06:22:22;;;;;;;11.02;8.20;;;;;;;27.29;55.21;100170.03;4858122;29;20026;-44
2023/09/07 06:24:47;;;;;;;11.30;8.20;;;;;;;27.55;54.56;100168.66;4858197;29;20157;-43
2023/09/07 06:27:13;;;;;;;12.38;8.75;;;;;;;27.41;55.19;100171.44;4858655;29;20025;-43
2023/09/07 06:29:38;;;;;;;14.60;9.30;;;;;;;27.39;56.16;100177.19;4858804;29;20025;-41
2023/09/07 06:32:03;;;;;;;16.17;8.70;;;;;;;27.35;56.07;100169.94;4858711;29;20502;-43
2023/09/07 06:34:29;;;;;;;12.32;9.07;;;;;;;27.05;56.08;100163.94;4858481;29;20033;-44
2023/09/07 06:36:54;;;;;;;11.88;8.98;;;;;;;26.83;57.21;100176.38;4840150;29;20470;-43
2023/09/07 06:39:20;;;;;;;19.25;12.15;;;;;;;26.72;57.64;100170.28;4840036;29;20094;-42
2023/09/07 06:41:46;;;;;;;20.75;14.10;;;;;;;26.98;57.46;100174.44;4839863;29;20034;-42
2023/09/07 06:44:12;;;;;;;12.35;9.63;;;;;;;27.27;56.57;100174.19;4839165;29;20029;-43
2023/09/07 06:46:37;;;;;;;12.77;9.07;;;;;;;27.89;53.90;100165.47;4840330;29;20026;-42
2023/09/07 06:49:03;;;;;;;13.23;10.32;;;;;;;28.47;52.01;100172.00;4840001;29;20054;-42
2023/09/07 06:51:30;;;;;;;14.35;9.73;;;;;;;28.36;52.88;100173.38;4839510;29;20089;-42
2023/09/07 06:53:55;;;;;;;13.73;9.25;;;;;;;28.58;52.53;100175.31;4838988;29;20050;-44
2023/09/07 06:56:20;;;;;;;12.60;8.77;;;;;;;28.59;52.49;100180.44;4839277;29;20479;-43
2023/09/07 06:58:46;;;;;;;14.18;9.13;;;;;;;28.76;52.45;100178.94;4839527;29;20078;-43
2023/09/07 07:01:11;;;;;;;16.58;9.00;;;;;;;29.02;51.40;100173.56;4838805;29;20030;-43
2023/09/07 07:03:37;;;;;;;14.10;9.65;;;;;;;29.18;51.66;100173.97;4839109;29;20143;-42
2023/09/07 07:06:02;;;;;;;11.45;8.82;;;;;;;29.46;49.87;100169.03;4839282;29;20367;-43
2023/09/07 07:08:27;;;;;;;10.60;8.45;;;;;;;29.80;49.25;100170.22;4839471;29;20034;-44
2023/09/07 07:10:53;;;;;;;13.20;8.02;;;;;;;29.97;48.11;100172.97;4838968;29;20113;-44
2023/09/07 07:13:19;;;;;;;13.38;7.78;;;;;;;29.94;47.69;100170.88;4839527;29;20041;-43
2023/09/07 07:15:44;;;;;;;14.18;7.75;;;;;;;30.02;47.58;100172.00;4852899;29;20062;-44
2023/09/07 07:18:10;;;;;;;9.70;7.88;;;;;;;29.47;47.78;100167.91;4857566;29;20074;-43
2023/09/07 07:20:41;;;;;;;10.10;7.40;;;;;;;29.21;47.13;100154.16;4857806;29;20032;-43
2023/09/07 07:23:07;;;;;;;10.40;7.80;;;;;;;28.94;48.94;100166.13;4854932;29;20030;-45
2023/09/07 07:25:33;;;;;;;11.18;7.78;;;;;;;28.67;50.96;100167.94;4858059;29;20407;-42
2023/09/07 07:28:05;;;;;;;11.57;7.30;;;;;;;28.57;51.17;100173.69;4846819;29;20049;-44
2023/09/07 07:30:40;;;;;;;8.40;7.13;;;;;;;28.53;51.02;100176.25;4846613;29;20040;-44
2023/09/07 07:33:06;;;;;;;9.05;6.95;;;;;;;28.37;51.27;100175.81;4848426;29;20459;-44
2023/09/07 07:35:34;;;;;;;10.55;6.93;;;;;;;28.36;51.85;100176.91;4848609;29;20113;-44
2023/09/07 07:38:00;;;;;;;8.50;6.67;;;;;;;28.59;50.33;100179.66;4847224;29;20374;-44
2023/09/07 07:40:26;;;;;;;9.27;6.50;;;;;;;28.75;49.93;100177.31;4848446;29;20308;-45
2023/09/07 07:42:53;;;;;;;8.18;6.70;;;;;;;28.80;50.72;100174.44;4848572;29;20037;-44
2023/09/07 07:45:19;;;;;;;10.13;7.10;;;;;;;28.93;50.00;100181.75;4850577;29;20120;-43
2023/09/07 07:47:45;;;;;;;7.30;6.55;;;;;;;29.10;50.38;100183.75;4848707;29;20114;-45
2023/09/07 07:50:11;;;;;;;8.85;6.50;;;;;;;29.43;48.65;100186.13;4849147;29;20115;-44
2023/09/07 07:52:36;;;;;;;10.20;6.85;;;;;;;29.72;47.29;100176.47;4846986;29;20101;-44
2023/09/07 07:55:02;;;;;;;10.95;6.90;;;;;;;30.02;45.52;100181.03;4850312;29;20064;-42
2023/09/07 07:57:28;;;;;;;9.52;7.07;;;;;;;29.85;46.24;100186.50;4851217;29;20029;-45
2023/09/07 07:59:54;;;;;;;10.27;7.15;;;;;;;29.69;46.66;100182.63;4850789;29;20054;-43
2023/09/07 08:02:20;;;;;;;8.38;6.70;;;;;;;29.53;47.20;100188.56;4851504;29;20026;-44
2023/09/07 08:04:45;;;;;;;7.43;6.00;;;;;;;29.39;47.54;100183.19;4849921;29;20020;-44
2023/09/07 08:07:11;;;;;;;6.90;6.03;;;;;;;29.41;45.93;100185.63;4851505;29;20104;-43
2023/09/07 08:09:37;;;;;;;7.80;6.25;;;;;;;29.36;45.81;100185.78;4851095;29;20369;-44
2023/09/07 08:12:03;;;;;;;8.02;6.03;;;;;;;29.20;45.89;100182.66;4855093;29;20043;-42
2023/09/07 08:14:30;;;;;;;7.90;5.95;;;;;;;29.13;46.25;100180.41;4859287;29;20108;-43
2023/09/07 08:16:57;;;;;;;10.98;6.10;;;;;;;29.17;46.18;100175.91;4856690;29;20104;-46
2023/09/07 08:19:23;;;;;;;8.70;7.13;;;;;;;29.17;46.23;100181.38;4859652;29;20057;-44
2023/09/07 08:21:48;;;;;;;7.40;6.32;;;;;;;29.18;45.65;100174.75;4859877;29;20490;-43
2023/09/07 08:24:14;;;;;;;8.30;5.40;;;;;;;29.13;43.88;100168.63;4860249;29;20105;-45
2023/09/07 08:26:39;;;;;;;8.80;6.03;;;;;;;29.07;44.58;100181.63;4856629;29;20058;-44
2023/09/07 08:29:05;;;;;;;7.03;5.60;;;;;;;29.01;43.85;100174.69;4860125;29;20078;-43
2023/09/07 08:31:33;;;;;;;6.03;5.20;;;;;;;28.95;44.39;100170.47;4859715;29;20360;-43
2023/09/07 08:34:03;;;;;;;9.67;6.90;;;;;;;28.83;45.52;100171.88;4860317;29;20025;-46
2023/09/07 08:36:32;;;;;;;7.18;5.60;;;;;;;28.98;44.67;100172.59;4860152;29;20085;-45
2023/09/07 08:39:00;;;;;;;7.90;5.40;;;;;;;29.38;43.35;100154.19;4859982;29;20077;-43
2023/09/07 08:41:26;;;;;;;7.15;5.82;;;;;;;29.39;43.90;100168.69;4860274;29;20090;-43
2023/09/07 08:43:54;;;;;;;8.40;5.72;;;;;;;29.42;43.93;100154.38;4860089;29;20029;-42
2023/09/07 08:46:23;;;;;;;8.00;5.90;;;;;;;29.68;42.92;100159.06;4860279;29;20119;-45
2023/09/07 08:48:49;;;;;;;8.45;5.97;;;;;;;29.74;43.57;100164.09;4859751;29;20049;-44
2023/09/07 08:51:18;;;;;;;8.48;6.05;;;;;;;29.51;46.12;100155.19;4859333;29;20033;-43
2023/09/07 08:53:46;;;;;;;8.63;6.47;;;;;;;29.63;45.30;100160.84;4859413;29;20074;-45
2023/09/07 08:56:12;;;;;;;8.48;6.30;;;;;;;29.60;45.99;100158.72;4859594;29;20075;-43
2023/09/07 08:58:40;;;;;;;7.03;5.97;;;;;;;29.69;44.94;100146.97;4859650;29;20507;-43
2023/09/07 09:01:05;;;;;;;9.18;5.75;;;;;;;29.69;43.40;100153.25;4859627;29;20364;-46
2023/09/07 09:03:31;;;;;;;6.70;5.93;;;;;;;29.74;44.57;100149.56;4859605;29;20116;-44
2023/09/07 09:05:56;;;;;;;10.35;6.90;;;;;;;29.84;45.84;100149.25;4858417;29;20112;-46
2023/09/07 09:08:24;;;;;;;9.90;6.68;;;;;;;29.73;46.23;100154.25;4859740;29;20037;-42
2023/09/07 09:11:02;;;;;;;11.13;7.05;;;;;;;29.72;45.81;100152.63;4859650;29;20108;-47
2023/09/07 09:13:30;;;;;;;9.02;6.60;;;;;;;29.74;45.88;100149.56;4859546;29;20093;-48
2023/09/07 09:15:56;;;;;;;8.93;6.35;;;;;;;29.97;45.04;100148.28;4859793;29;20116;-42
2023/09/07 09:18:21;;;;;;;9.23;5.72;;;;;;;30.02;45.42;100144.56;4859628;29;20036;-45
2023/09/07 09:20:47;;;;;;;8.52;6.60;;;;;;;30.09;44.64;100144.06;4859872;29;20033;-45
2023/09/07 09:23:14;;;;;;;10.15;6.90;;;;;;;29.96;44.75;100135.69;4859654;29;20459;-43
2023/09/07 09:25:41;;;;;;;11.65;6.57;;;;;;;29.83;45.26;100131.19;4858906;29;20048;-44
2023/09/07 09:28:11;;;;;;;9.57;6.40;;;;;;;29.78;45.70;100128.63;4859201;29;20029;-43
2023/09/07 09:30:37;;;;;;;9.07;6.57;;;;;;;29.66;45.87;100131.94;4859542;29;20041;-43
2023/09/07 09:33:05;;;;;;;9.02;6.50;;;;;;;29.75;45.99;100124.56;4859459;29;20029;-42
2023/09/07 09:35:31;;;;;;;9.32;6.43;;;;;;;29.85;44.71;100123.44;4859488;29;20037;-44
2023/09/07 09:38:04;;;;;;;18.88;8.40;;;;;;;30.06;43.20;100120.03;4859433;29;20459;-43
2023/09/07 09:40:30;;;;;;;11.73;7.05;;;;;;;30.14;43.31;100113.69;4858981;29;20066;-42
2023/09/07 09:42:57;;;;;;;11.95;6.38;;;;;;;30.11;44.00;100115.16;4859346;29;20498;-40
2023/09/07 09:45:26;;;;;;;7.50;6.10;;;;;;;30.37;42.46;100114.34;4857137;29;20592;-42
2023/09/07 09:47:54;;;;;;;9.48;5.72;;;;;;;30.39;42.81;100112.09;4859151;29;20546;-42
2023/09/07 09:50:20;;;;;;;7.00;6.07;;;;;;;30.50;42.81;100112.50;4858979;29;20033;-42
2023/09/07 09:52:47;;;;;;;6.75;5.30;;;;;;;30.52;41.02;100104.75;4858989;29;20097;-44
2023/09/07 09:55:13;;;;;;;6.63;5.40;;;;;;;30.56;40.09;100098.28;4859156;29;20112;-43
2023/09/07 09:57:39;;;;;;;8.32;6.00;;;;;;;30.72;40.67;100103.22;4858934;29;20045;-43
2023/09/07 10:02:47;;;;;;;10.73;6.03;;;;;;;30.24;40.73;100090.63;4859033;29;20092;-42
2023/09/07 10:05:14;;;;;;;8.23;5.63;;;;;;;30.36;41.55;100093.50;4858598;29;20501;-45
2023/09/07 10:07:43;;;;;;;9.45;5.55;;;;;;;30.54;41.21;100088.75;4858457;29;20040;-44
2023/09/07 10:10:12;;;;;;;8.88;6.22;;;;;;;30.44;41.83;100094.63;4858364;29;20036;-43
2023/09/07 10:12:44;;;;;;;8.00;6.13;;;;;;;30.43;41.51;100091.06;4858847;29;20029;-42
2023/09/07 10:15:27;;;;;;;8.70;5.63;;;;;;;30.44;40.02;100094.63;4858706;29;20038;-42
2023/09/07 10:18:11;;;;;;;9.88;5.38;;;;;;;30.39;40.25;100087.38;4857847;29;20025;-41
2023/09/07 10:20:58;;;;;;;8.43;5.82;;;;;;;30.20;40.45;100088.53;4858205;29;20120;-41
2023/09/07 10:23:35;;;;;;;8.45;5.13;;;;;;;30.31;39.44;100079.94;4850022;29;20057;-42
2023/09/07 10:26:04;;;;;;;6.57;5.10;;;;;;;30.27;40.03;100084.47;4839748;29;20046;-42
2023/09/07 10:28:30;;;;;;;7.32;5.25;;;;;;;30.21;38.94;100087.41;4839201;29;20086;-43
2023/09/07 10:31:05;;;;;;;8.63;5.35;;;;;;;29.91;39.99;100077.44;4839272;29;20034;-42
2023/09/07 10:33:35;;;;;;;6.93;5.55;;;;;;;29.84;41.02;100080.69;4839340;29;20112;-42
2023/09/07 10:36:03;;;;;;;5.95;5.10;;;;;;;29.90;39.76;100073.91;4839579;29;20063;-44
2023/09/07 10:38:30;;;;;;;7.60;5.68;;;;;;;30.24;40.33;100068.66;4839343;29;20034;-43
2023/09/07 10:41:00;;;;;;;7.93;5.07;;;;;;;30.33;39.34;100072.19;4853289;29;20043;-43
2023/09/07 10:43:27;;;;;;;9.30;5.20;;;;;;;30.32;39.84;100070.59;4839352;29;20037;-42
2023/09/07 10:45:57;;;;;;;9.32;5.40;;;;;;;30.05;39.68;100061.59;4846432;29;20039;-42
2023/09/07 10:48:23;;;;;;;7.22;4.93;;;;;;;30.23;38.54;100070.59;4857892;29;20112;-43
2023/09/07 10:50:51;;;;;;;9.98;4.93;;;;;;;30.15;38.56;100069.47;4857381;29;20033;-42
2023/09/07 10:53:25;;;;;;;6.68;5.00;;;;;;;30.02;39.97;100068.56;4857856;29;20430;-43
2023/09/07 10:55:51;;;;;;;5.95;4.68;;;;;;;30.08;39.05;100076.59;4858038;29;20142;-43
2023/09/07 10:58:25;;;;;;;6.70;4.68;;;;;;;30.10;40.03;100071.59;4856969;29;20153;-42
2023/09/07 11:00:53;;;;;;;6.50;4.65;;;;;;;30.26;39.66;100067.19;4857741;29;20048;-43
2023/09/07 11:03:18;;;;;;;5.55;4.90;;;;;;;30.34;39.48;100060.91;4858068;29;20040;-41
2023/09/07 11:05:43;;;;;;;8.50;4.93;;;;;;;30.62;38.93;100063.22;4858348;29;20034;-41
2023/09/07 11:08:09;;;;;;;5.53;4.90;;;;;;;30.88;38.94;100062.25;4853739;29;20332;-44
2023/09/07 11:10:36;;;;;;;6.28;4.65;;;;;;;31.03;37.60;100047.16;4848394;29;20502;-41
2023/09/07 11:13:05;;;;;;;7.18;4.80;;;;;;;30.90;37.71;100047.09;4839489;29;20033;-42
2023/09/07 11:15:31;;;;;;;5.32;4.68;;;;;;;31.38;36.13;100044.97;4846225;29;20075;-41
2023/09/07 11:17:57;;;;;;;6.90;5.00;;;;;;;31.35;35.75;100040.13;4848782;29;20091;-42